sensor_id;sensor_type;location;lat;lon;timestamp;P1;durP1;ratioP1;P2;durP2;ratioP2
12812;SDS011;6471;50.932;6.934;2023-07-31T00:00:33;2.57;;;1.87;;
12812;SDS011;6471;50.932;6.934;2023-07-31T00:02:59;5.40;;;2.40;;
12812;SDS011;6471;50.932;6.934;2023-07-31T00:05:25;5.13;;;2.50;;
12812;SDS011;6471;50.932;6.934;2023-07-31T00:07:51;5.07;;;2.37;;
12812;SDS011;6471;50.932;6.934;2023-07-31T00:10:19;3.77;;;2.43;;
12812;SDS011;6471;50.932;6.934;2023-07-31T00:12:45;4.33;;;2.63;;
12812;SDS011;6471;50.932;6.934;2023-07-31T00:15:11;2.70;;;2.10;;
12812;SDS011;6471;50.932;6.934;2023-07-31T00:17:38;3.90;;;2.67;;
12812;SDS011;6471;50.932;6.934;2023-07-31T00:20:04;3.50;;;2.30;;
12812;SDS011;6471;50.932;6.934;2023-07-31T00:22:30;4.50;;;2.60;;
12812;SDS011;6471;50.932;6.934;2023-07-31T00:24:56;4.30;;;2.50;;
12812;SDS011;6471;50.932;6.934;2023-07-31T00:27:23;3.70;;;2.37;;
12812;SDS011;6471;50.932;6.934;2023-07-31T00:29:49;2.73;;;2.20;;
12812;SDS011;6471;50.932;6.934;2023-07-31T00:32:15;4.50;;;2.50;;
12812;SDS011;6471;50.932;6.934;2023-07-31T00:34:41;3.27;;;2.10;;
12812;SDS011;6471;50.932;6.934;2023-07-31T00:37:07;3.90;;;2.33;;
12812;SDS011;6471;50.932;6.934;2023-07-31T00:39:33;2.90;;;2.23;;
12812;SDS011;6471;50.932;6.934;2023-07-31T00:42:00;3.27;;;2.00;;
12812;SDS011;6471;50.932;6.934;2023-07-31T00:44:30;2.93;;;2.10;;
12812;SDS011;6471;50.932;6.934;2023-07-31T00:46:58;3.17;;;2.20;;
12812;SDS011;6471;50.932;6.934;2023-07-31T00:49:24;4.30;;;2.57;;
12812;SDS011;6471;50.932;6.934;2023-07-31T00:51:50;4.17;;;2.40;;
12812;SDS011;6471;50.932;6.934;2023-07-31T00:54:16;4.30;;;2.60;;
12812;SDS011;6471;50.932;6.934;2023-07-31T00:56:44;3.40;;;2.60;;
12812;SDS011;6471;50.932;6.934;2023-07-31T00:59:10;4.33;;;2.60;;
12812;SDS011;6471;50.932;6.934;2023-07-31T01:01:37;4.97;;;2.57;;
12812;SDS011;6471;50.932;6.934;2023-07-31T01:04:03;2.90;;;2.20;;
12812;SDS011;6471;50.932;6.934;2023-07-31T01:06:37;3.40;;;2.27;;
12812;SDS011;6471;50.932;6.934;2023-07-31T01:09:15;3.70;;;2.30;;
12812;SDS011;6471;50.932;6.934;2023-07-31T01:11:45;5.13;;;2.30;;
12812;SDS011;6471;50.932;6.934;2023-07-31T01:14:13;3.53;;;2.00;;
12812;SDS011;6471;50.932;6.934;2023-07-31T01:16:39;2.57;;;1.77;;
12812;SDS011;6471;50.932;6.934;2023-07-31T01:19:06;3.50;;;2.20;;
12812;SDS011;6471;50.932;6.934;2023-07-31T01:27:21;3.10;;;1.87;;
12812;SDS011;6471;50.932;6.934;2023-07-31T01:32:08;4.30;;;2.60;;
12812;SDS011;6471;50.932;6.934;2023-07-31T01:34:35;3.13;;;2.20;;
12812;SDS011;6471;50.932;6.934;2023-07-31T01:37:01;3.93;;;2.33;;
12812;SDS011;6471;50.932;6.934;2023-07-31T01:39:27;4.10;;;2.20;;
12812;SDS011;6471;50.932;6.934;2023-07-31T01:41:53;5.10;;;2.10;;
12812;SDS011;6471;50.932;6.934;2023-07-31T01:44:20;2.80;;;2.23;;
12812;SDS011;6471;50.932;6.934;2023-07-31T01:46:46;3.03;;;2.17;;
12812;SDS011;6471;50.932;6.934;2023-07-31T01:49:12;4.33;;;2.10;;
12812;SDS011;6471;50.932;6.934;2023-07-31T01:51:38;2.43;;;1.90;;
12812;SDS011;6471;50.932;6.934;2023-07-31T01:54:04;3.90;;;2.20;;
12812;SDS011;6471;50.932;6.934;2023-07-31T01:56:30;2.83;;;2.00;;
12812;SDS011;6471;50.932;6.934;2023-07-31T01:58:56;2.90;;;2.10;;
12812;SDS011;6471;50.932;6.934;2023-07-31T02:01:22;3.80;;;2.03;;
12812;SDS011;6471;50.932;6.934;2023-07-31T02:03:48;4.00;;;2.13;;
12812;SDS011;6471;50.932;6.934;2023-07-31T02:06:14;3.27;;;2.10;;
12812;SDS011;6471;50.932;6.934;2023-07-31T02:08:40;4.13;;;2.17;;
12812;SDS011;6471;50.932;6.934;2023-07-31T02:11:06;3.83;;;2.20;;
12812;SDS011;6471;50.932;6.934;2023-07-31T02:13:33;2.80;;;2.10;;
12812;SDS011;6471;50.932;6.934;2023-07-31T02:15:59;3.53;;;2.20;;
12812;SDS011;6471;50.932;6.934;2023-07-31T02:18:25;2.63;;;2.10;;
12812;SDS011;6471;50.932;6.934;2023-07-31T02:20:51;2.27;;;1.60;;
12812;SDS011;6471;50.932;6.934;2023-07-31T02:23:17;2.97;;;1.80;;
12812;SDS011;6471;50.932;6.934;2023-07-31T02:25:44;2.80;;;1.50;;
12812;SDS011;6471;50.932;6.934;2023-07-31T02:28:10;2.27;;;1.80;;
12812;SDS011;6471;50.932;6.934;2023-07-31T02:30:36;2.83;;;1.90;;
12812;SDS011;6471;50.932;6.934;2023-07-31T02:33:03;2.50;;;1.90;;
12812;SDS011;6471;50.932;6.934;2023-07-31T02:35:29;2.90;;;1.80;;
12812;SDS011;6471;50.932;6.934;2023-07-31T02:37:55;3.10;;;1.90;;
12812;SDS011;6471;50.932;6.934;2023-07-31T02:40:21;2.03;;;1.67;;
12812;SDS011;6471;50.932;6.934;2023-07-31T02:42:48;4.10;;;2.27;;
12812;SDS011;6471;50.932;6.934;2023-07-31T02:45:14;3.43;;;2.10;;
12812;SDS011;6471;50.932;6.934;2023-07-31T02:47:40;4.10;;;2.00;;
12812;SDS011;6471;50.932;6.934;2023-07-31T02:50:06;2.07;;;1.80;;
12812;SDS011;6471;50.932;6.934;2023-07-31T02:52:32;3.27;;;2.17;;
12812;SDS011;6471;50.932;6.934;2023-07-31T02:54:58;3.20;;;2.10;;
12812;SDS011;6471;50.932;6.934;2023-07-31T02:57:24;3.03;;;1.77;;
12812;SDS011;6471;50.932;6.934;2023-07-31T02:59:50;2.83;;;1.90;;
12812;SDS011;6471;50.932;6.934;2023-07-31T03:02:16;3.17;;;2.10;;
12812;SDS011;6471;50.932;6.934;2023-07-31T03:04:43;5.73;;;2.53;;
12812;SDS011;6471;50.932;6.934;2023-07-31T03:07:09;3.33;;;2.00;;
12812;SDS011;6471;50.932;6.934;2023-07-31T03:09:35;2.60;;;2.07;;
12812;SDS011;6471;50.932;6.934;2023-07-31T03:12:01;3.20;;;1.90;;
12812;SDS011;6471;50.932;6.934;2023-07-31T03:14:27;2.80;;;1.93;;
12812;SDS011;6471;50.932;6.934;2023-07-31T03:16:56;3.33;;;1.90;;
12812;SDS011;6471;50.932;6.934;2023-07-31T03:19:22;2.03;;;1.70;;
12812;SDS011;6471;50.932;6.934;2023-07-31T03:21:48;2.20;;;1.80;;
12812;SDS011;6471;50.932;6.934;2023-07-31T03:24:14;2.60;;;2.03;;
12812;SDS011;6471;50.932;6.934;2023-07-31T03:26:40;2.60;;;2.00;;
12812;SDS011;6471;50.932;6.934;2023-07-31T03:29:07;2.80;;;1.97;;
12812;SDS011;6471;50.932;6.934;2023-07-31T03:31:33;2.53;;;1.90;;
12812;SDS011;6471;50.932;6.934;2023-07-31T03:33:59;3.43;;;2.17;;
12812;SDS011;6471;50.932;6.934;2023-07-31T03:36:25;2.60;;;1.90;;
12812;SDS011;6471;50.932;6.934;2023-07-31T03:38:51;3.87;;;2.33;;
12812;SDS011;6471;50.932;6.934;2023-07-31T03:41:17;3.40;;;2.00;;
12812;SDS011;6471;50.932;6.934;2023-07-31T03:43:45;3.23;;;2.07;;
12812;SDS011;6471;50.932;6.934;2023-07-31T03:46:11;3.53;;;2.23;;
12812;SDS011;6471;50.932;6.934;2023-07-31T03:48:37;5.83;;;2.60;;
12812;SDS011;6471;50.932;6.934;2023-07-31T03:51:03;5.83;;;3.00;;
12812;SDS011;6471;50.932;6.934;2023-07-31T03:53:29;4.63;;;2.30;;
12812;SDS011;6471;50.932;6.934;2023-07-31T03:55:55;3.90;;;2.77;;
12812;SDS011;6471;50.932;6.934;2023-07-31T03:58:21;2.70;;;2.30;;
12812;SDS011;6471;50.932;6.934;2023-07-31T04:00:47;3.73;;;2.53;;
12812;SDS011;6471;50.932;6.934;2023-07-31T04:03:14;3.87;;;2.60;;
12812;SDS011;6471;50.932;6.934;2023-07-31T04:05:40;3.53;;;2.20;;
12812;SDS011;6471;50.932;6.934;2023-07-31T04:08:06;2.80;;;2.40;;
12812;SDS011;6471;50.932;6.934;2023-07-31T04:10:32;4.63;;;2.60;;
12812;SDS011;6471;50.932;6.934;2023-07-31T04:12:59;3.40;;;2.50;;
12812;SDS011;6471;50.932;6.934;2023-07-31T04:15:28;3.20;;;2.13;;
12812;SDS011;6471;50.932;6.934;2023-07-31T04:17:54;3.50;;;2.07;;
12812;SDS011;6471;50.932;6.934;2023-07-31T04:20:20;3.23;;;2.30;;
12812;SDS011;6471;50.932;6.934;2023-07-31T04:22:46;2.67;;;2.10;;
12812;SDS011;6471;50.932;6.934;2023-07-31T04:25:12;3.30;;;2.13;;
12812;SDS011;6471;50.932;6.934;2023-07-31T04:27:39;2.60;;;1.90;;
12812;SDS011;6471;50.932;6.934;2023-07-31T04:30:06;2.13;;;1.73;;
12812;SDS011;6471;50.932;6.934;2023-07-31T04:32:32;2.40;;;1.87;;
12812;SDS011;6471;50.932;6.934;2023-07-31T04:34:58;3.63;;;1.93;;
12812;SDS011;6471;50.932;6.934;2023-07-31T04:37:24;2.00;;;1.60;;
12812;SDS011;6471;50.932;6.934;2023-07-31T04:39:50;2.27;;;1.67;;
12812;SDS011;6471;50.932;6.934;2023-07-31T04:42:17;2.20;;;1.80;;
12812;SDS011;6471;50.932;6.934;2023-07-31T04:44:43;1.97;;;1.77;;
12812;SDS011;6471;50.932;6.934;2023-07-31T04:47:09;2.43;;;1.87;;
12812;SDS011;6471;50.932;6.934;2023-07-31T04:49:35;2.97;;;2.37;;
12812;SDS011;6471;50.932;6.934;2023-07-31T04:52:10;2.50;;;2.00;;
12812;SDS011;6471;50.932;6.934;2023-07-31T04:54:37;2.93;;;2.17;;
12812;SDS011;6471;50.932;6.934;2023-07-31T04:57:21;2.57;;;1.83;;
12812;SDS011;6471;50.932;6.934;2023-07-31T04:59:47;3.17;;;2.63;;
12812;SDS011;6471;50.932;6.934;2023-07-31T05:02:16;3.20;;;2.33;;
12812;SDS011;6471;50.932;6.934;2023-07-31T05:04:42;2.97;;;2.40;;
12812;SDS011;6471;50.932;6.934;2023-07-31T05:07:08;3.20;;;2.33;;
12812;SDS011;6471;50.932;6.934;2023-07-31T05:09:34;4.07;;;2.50;;
12812;SDS011;6471;50.932;6.934;2023-07-31T05:12:00;3.97;;;2.37;;
12812;SDS011;6471;50.932;6.934;2023-07-31T05:14:26;3.53;;;2.50;;
12812;SDS011;6471;50.932;6.934;2023-07-31T05:16:53;3.13;;;2.43;;
12812;SDS011;6471;50.932;6.934;2023-07-31T05:19:19;4.87;;;2.70;;
12812;SDS011;6471;50.932;6.934;2023-07-31T05:21:45;4.93;;;2.70;;
12812;SDS011;6471;50.932;6.934;2023-07-31T05:24:11;3.23;;;2.53;;
12812;SDS011;6471;50.932;6.934;2023-07-31T05:26:40;2.80;;;2.20;;
12812;SDS011;6471;50.932;6.934;2023-07-31T05:29:06;3.23;;;2.30;;
12812;SDS011;6471;50.932;6.934;2023-07-31T05:31:38;3.27;;;2.57;;
12812;SDS011;6471;50.932;6.934;2023-07-31T05:34:04;3.33;;;2.43;;
12812;SDS011;6471;50.932;6.934;2023-07-31T05:36:30;3.27;;;2.70;;
12812;SDS011;6471;50.932;6.934;2023-07-31T05:38:59;4.07;;;2.40;;
12812;SDS011;6471;50.932;6.934;2023-07-31T05:41:31;3.83;;;2.60;;
12812;SDS011;6471;50.932;6.934;2023-07-31T05:44:01;2.63;;;2.20;;
12812;SDS011;6471;50.932;6.934;2023-07-31T05:46:28;2.90;;;2.43;;
12812;SDS011;6471;50.932;6.934;2023-07-31T05:48:54;4.20;;;2.93;;
12812;SDS011;6471;50.932;6.934;2023-07-31T05:51:25;3.83;;;2.60;;
12812;SDS011;6471;50.932;6.934;2023-07-31T05:54:42;3.87;;;2.70;;
12812;SDS011;6471;50.932;6.934;2023-07-31T05:56:50;3.87;;;2.63;;
12812;SDS011;6471;50.932;6.934;2023-07-31T05:59:19;3.47;;;2.60;;
12812;SDS011;6471;50.932;6.934;2023-07-31T06:02:05;3.37;;;2.60;;
12812;SDS011;6471;50.932;6.934;2023-07-31T06:04:34;3.53;;;3.00;;
12812;SDS011;6471;50.932;6.934;2023-07-31T06:07:24;4.00;;;2.90;;
12812;SDS011;6471;50.932;6.934;2023-07-31T06:09:55;3.90;;;3.13;;
12812;SDS011;6471;50.932;6.934;2023-07-31T06:12:51;5.13;;;3.90;;
12812;SDS011;6471;50.932;6.934;2023-07-31T06:15:17;4.77;;;3.50;;
12812;SDS011;6471;50.932;6.934;2023-07-31T06:17:44;4.37;;;3.40;;
12812;SDS011;6471;50.932;6.934;2023-07-31T06:20:10;4.37;;;3.10;;
12812;SDS011;6471;50.932;6.934;2023-07-31T06:22:36;4.73;;;3.33;;
12812;SDS011;6471;50.932;6.934;2023-07-31T06:25:03;4.80;;;3.00;;
12812;SDS011;6471;50.932;6.934;2023-07-31T06:27:29;4.00;;;2.80;;
12812;SDS011;6471;50.932;6.934;2023-07-31T06:29:55;3.47;;;2.60;;
12812;SDS011;6471;50.932;6.934;2023-07-31T06:32:21;6.83;;;2.90;;
12812;SDS011;6471;50.932;6.934;2023-07-31T06:34:47;4.07;;;3.00;;
12812;SDS011;6471;50.932;6.934;2023-07-31T06:37:13;4.23;;;3.10;;
12812;SDS011;6471;50.932;6.934;2023-07-31T06:39:39;5.73;;;3.20;;
12812;SDS011;6471;50.932;6.934;2023-07-31T06:42:05;5.63;;;3.27;;
12812;SDS011;6471;50.932;6.934;2023-07-31T06:44:31;3.93;;;2.80;;
12812;SDS011;6471;50.932;6.934;2023-07-31T06:46:58;4.33;;;2.90;;
12812;SDS011;6471;50.932;6.934;2023-07-31T06:49:24;5.00;;;3.10;;
12812;SDS011;6471;50.932;6.934;2023-07-31T06:51:50;4.07;;;3.10;;
12812;SDS011;6471;50.932;6.934;2023-07-31T06:54:16;4.90;;;3.40;;
12812;SDS011;6471;50.932;6.934;2023-07-31T06:56:42;5.80;;;3.40;;
12812;SDS011;6471;50.932;6.934;2023-07-31T06:59:08;7.13;;;4.10;;
12812;SDS011;6471;50.932;6.934;2023-07-31T07:01:34;6.27;;;3.57;;
12812;SDS011;6471;50.932;6.934;2023-07-31T07:04:00;4.77;;;3.30;;
12812;SDS011;6471;50.932;6.934;2023-07-31T07:06:26;5.17;;;3.43;;
12812;SDS011;6471;50.932;6.934;2023-07-31T07:08:52;4.43;;;3.10;;
12812;SDS011;6471;50.932;6.934;2023-07-31T07:11:18;3.33;;;2.80;;
12812;SDS011;6471;50.932;6.934;2023-07-31T07:13:44;4.47;;;3.00;;
12812;SDS011;6471;50.932;6.934;2023-07-31T07:16:10;4.00;;;2.87;;
12812;SDS011;6471;50.932;6.934;2023-07-31T07:18:36;3.77;;;2.87;;
12812;SDS011;6471;50.932;6.934;2023-07-31T07:21:03;5.00;;;2.87;;
12812;SDS011;6471;50.932;6.934;2023-07-31T07:23:29;3.83;;;2.57;;
12812;SDS011;6471;50.932;6.934;2023-07-31T07:25:55;4.00;;;2.77;;
12812;SDS011;6471;50.932;6.934;2023-07-31T07:28:21;4.30;;;2.63;;
12812;SDS011;6471;50.932;6.934;2023-07-31T07:30:53;5.67;;;2.83;;
12812;SDS011;6471;50.932;6.934;2023-07-31T07:33:28;3.20;;;2.50;;
12812;SDS011;6471;50.932;6.934;2023-07-31T07:35:54;5.70;;;3.03;;
12812;SDS011;6471;50.932;6.934;2023-07-31T07:38:20;5.60;;;3.50;;
12812;SDS011;6471;50.932;6.934;2023-07-31T07:40:46;4.23;;;2.63;;
12812;SDS011;6471;50.932;6.934;2023-07-31T07:43:15;3.27;;;2.57;;
12812;SDS011;6471;50.932;6.934;2023-07-31T07:45:41;3.33;;;2.70;;
12812;SDS011;6471;50.932;6.934;2023-07-31T07:48:07;4.87;;;2.93;;
12812;SDS011;6471;50.932;6.934;2023-07-31T07:50:33;3.60;;;2.80;;
12812;SDS011;6471;50.932;6.934;2023-07-31T07:52:59;3.97;;;2.80;;
12812;SDS011;6471;50.932;6.934;2023-07-31T07:55:25;2.93;;;2.53;;
12812;SDS011;6471;50.932;6.934;2023-07-31T07:57:51;4.00;;;3.17;;
12812;SDS011;6471;50.932;6.934;2023-07-31T08:00:17;3.20;;;2.60;;
12812;SDS011;6471;50.932;6.934;2023-07-31T08:02:43;3.47;;;2.60;;
12812;SDS011;6471;50.932;6.934;2023-07-31T08:05:09;4.17;;;2.50;;
12812;SDS011;6471;50.932;6.934;2023-07-31T08:07:35;3.53;;;2.47;;
12812;SDS011;6471;50.932;6.934;2023-07-31T08:10:02;3.63;;;2.37;;
12812;SDS011;6471;50.932;6.934;2023-07-31T08:12:28;3.83;;;2.97;;
12812;SDS011;6471;50.932;6.934;2023-07-31T08:14:54;3.20;;;2.27;;
12812;SDS011;6471;50.932;6.934;2023-07-31T08:17:20;5.20;;;2.40;;
12812;SDS011;6471;50.932;6.934;2023-07-31T08:19:46;3.63;;;2.27;;
12812;SDS011;6471;50.932;6.934;2023-07-31T08:22:12;3.27;;;2.10;;
12812;SDS011;6471;50.932;6.934;2023-07-31T08:24:39;3.43;;;2.50;;
12812;SDS011;6471;50.932;6.934;2023-07-31T08:27:05;3.10;;;2.20;;
12812;SDS011;6471;50.932;6.934;2023-07-31T08:29:32;2.73;;;2.20;;
12812;SDS011;6471;50.932;6.934;2023-07-31T08:31:58;3.20;;;2.13;;
12812;SDS011;6471;50.932;6.934;2023-07-31T08:34:24;3.13;;;2.40;;
12812;SDS011;6471;50.932;6.934;2023-07-31T08:36:50;2.87;;;2.20;;
12812;SDS011;6471;50.932;6.934;2023-07-31T08:39:16;6.10;;;2.90;;
12812;SDS011;6471;50.932;6.934;2023-07-31T08:41:42;5.03;;;2.67;;
12812;SDS011;6471;50.932;6.934;2023-07-31T08:44:08;2.80;;;2.20;;
12812;SDS011;6471;50.932;6.934;2023-07-31T08:46:36;3.37;;;2.50;;
12812;SDS011;6471;50.932;6.934;2023-07-31T08:49:04;3.17;;;2.40;;
12812;SDS011;6471;50.932;6.934;2023-07-31T08:51:34;4.77;;;2.53;;
12812;SDS011;6471;50.932;6.934;2023-07-31T08:54:00;3.80;;;2.30;;
12812;SDS011;6471;50.932;6.934;2023-07-31T08:56:29;3.03;;;2.30;;
12812;SDS011;6471;50.932;6.934;2023-07-31T08:58:55;2.97;;;2.13;;
12812;SDS011;6471;50.932;6.934;2023-07-31T09:01:22;3.60;;;2.40;;
12812;SDS011;6471;50.932;6.934;2023-07-31T09:03:49;4.43;;;3.10;;
12812;SDS011;6471;50.932;6.934;2023-07-31T09:06:17;3.23;;;2.20;;
12812;SDS011;6471;50.932;6.934;2023-07-31T09:08:44;2.83;;;1.83;;
12812;SDS011;6471;50.932;6.934;2023-07-31T09:11:11;3.97;;;2.50;;
12812;SDS011;6471;50.932;6.934;2023-07-31T09:13:38;3.37;;;2.53;;
12812;SDS011;6471;50.932;6.934;2023-07-31T09:16:05;3.10;;;2.13;;
12812;SDS011;6471;50.932;6.934;2023-07-31T09:18:32;6.83;;;2.40;;
12812;SDS011;6471;50.932;6.934;2023-07-31T09:21:04;3.37;;;2.00;;
12812;SDS011;6471;50.932;6.934;2023-07-31T09:23:40;3.50;;;2.20;;
12812;SDS011;6471;50.932;6.934;2023-07-31T09:26:06;2.57;;;2.00;;
12812;SDS011;6471;50.932;6.934;2023-07-31T09:28:32;3.40;;;2.10;;
12812;SDS011;6471;50.932;6.934;2023-07-31T09:30:58;3.50;;;2.30;;
12812;SDS011;6471;50.932;6.934;2023-07-31T09:33:24;3.33;;;2.33;;
12812;SDS011;6471;50.932;6.934;2023-07-31T09:35:50;2.60;;;2.27;;
12812;SDS011;6471;50.932;6.934;2023-07-31T09:38:16;3.77;;;2.30;;
12812;SDS011;6471;50.932;6.934;2023-07-31T09:40:43;3.17;;;2.20;;
12812;SDS011;6471;50.932;6.934;2023-07-31T09:43:10;3.60;;;2.47;;
12812;SDS011;6471;50.932;6.934;2023-07-31T09:45:40;3.03;;;2.10;;
12812;SDS011;6471;50.932;6.934;2023-07-31T09:48:10;2.73;;;2.00;;
12812;SDS011;6471;50.932;6.934;2023-07-31T09:50:37;2.70;;;1.97;;
12812;SDS011;6471;50.932;6.934;2023-07-31T09:53:04;2.97;;;2.13;;
12812;SDS011;6471;50.932;6.934;2023-07-31T09:55:30;3.13;;;2.13;;
12812;SDS011;6471;50.932;6.934;2023-07-31T09:57:57;3.73;;;2.20;;
12812;SDS011;6471;50.932;6.934;2023-07-31T10:00:23;4.00;;;2.50;;
12812;SDS011;6471;50.932;6.934;2023-07-31T10:02:53;4.00;;;2.30;;
12812;SDS011;6471;50.932;6.934;2023-07-31T10:05:20;2.93;;;2.10;;
12812;SDS011;6471;50.932;6.934;2023-07-31T10:07:55;5.20;;;2.30;;
12812;SDS011;6471;50.932;6.934;2023-07-31T10:10:23;3.20;;;2.10;;
12812;SDS011;6471;50.932;6.934;2023-07-31T10:12:49;4.13;;;2.33;;
12812;SDS011;6471;50.932;6.934;2023-07-31T10:15:15;3.80;;;2.17;;
12812;SDS011;6471;50.932;6.934;2023-07-31T10:17:42;3.57;;;2.40;;
12812;SDS011;6471;50.932;6.934;2023-07-31T10:20:09;3.30;;;2.20;;
12812;SDS011;6471;50.932;6.934;2023-07-31T10:22:35;3.10;;;2.33;;
12812;SDS011;6471;50.932;6.934;2023-07-31T10:25:02;3.17;;;2.10;;
12812;SDS011;6471;50.932;6.934;2023-07-31T10:27:28;3.00;;;2.00;;
12812;SDS011;6471;50.932;6.934;2023-07-31T10:29:55;2.57;;;1.80;;
12812;SDS011;6471;50.932;6.934;2023-07-31T10:32:22;2.17;;;1.80;;
12812;SDS011;6471;50.932;6.934;2023-07-31T10:34:48;1.77;;;1.60;;
12812;SDS011;6471;50.932;6.934;2023-07-31T10:40:00;2.10;;;1.63;;
12812;SDS011;6471;50.932;6.934;2023-07-31T10:42:30;3.20;;;1.87;;
12812;SDS011;6471;50.932;6.934;2023-07-31T10:45:00;2.17;;;1.83;;
12812;SDS011;6471;50.932;6.934;2023-07-31T10:47:27;3.13;;;1.90;;
12812;SDS011;6471;50.932;6.934;2023-07-31T10:50:05;2.80;;;2.10;;
12812;SDS011;6471;50.932;6.934;2023-07-31T10:52:36;5.57;;;2.10;;
12812;SDS011;6471;50.932;6.934;2023-07-31T10:58:05;2.40;;;1.87;;
12812;SDS011;6471;50.932;6.934;2023-07-31T11:00:32;3.13;;;2.10;;
12812;SDS011;6471;50.932;6.934;2023-07-31T11:02:58;3.20;;;2.27;;
12812;SDS011;6471;50.932;6.934;2023-07-31T11:05:44;3.57;;;1.90;;
12812;SDS011;6471;50.932;6.934;2023-07-31T11:10:40;2.10;;;1.60;;
12812;SDS011;6471;50.932;6.934;2023-07-31T11:13:06;2.27;;;1.67;;
12812;SDS011;6471;50.932;6.934;2023-07-31T11:15:32;2.23;;;1.40;;
12812;SDS011;6471;50.932;6.934;2023-07-31T11:18:00;1.70;;;1.40;;
12812;SDS011;6471;50.932;6.934;2023-07-31T11:20:31;2.63;;;1.70;;
12812;SDS011;6471;50.932;6.934;2023-07-31T11:23:01;1.53;;;1.37;;
12812;SDS011;6471;50.932;6.934;2023-07-31T11:25:31;2.00;;;1.40;;
12812;SDS011;6471;50.932;6.934;2023-07-31T11:28:09;2.00;;;1.60;;
12812;SDS011;6471;50.932;6.934;2023-07-31T11:30:36;1.53;;;1.40;;
12812;SDS011;6471;50.932;6.934;2023-07-31T11:33:02;1.30;;;1.20;;
12812;SDS011;6471;50.932;6.934;2023-07-31T11:35:35;2.50;;;1.50;;
12812;SDS011;6471;50.932;6.934;2023-07-31T11:38:02;2.07;;;1.40;;
12812;SDS011;6471;50.932;6.934;2023-07-31T11:40:28;1.63;;;1.20;;
12812;SDS011;6471;50.932;6.934;2023-07-31T11:42:55;1.60;;;1.40;;
12812;SDS011;6471;50.932;6.934;2023-07-31T11:45:24;2.60;;;1.60;;
12812;SDS011;6471;50.932;6.934;2023-07-31T11:47:50;1.63;;;1.37;;
12812;SDS011;6471;50.932;6.934;2023-07-31T11:50:16;1.50;;;1.10;;
12812;SDS011;6471;50.932;6.934;2023-07-31T11:52:44;2.30;;;1.13;;
12812;SDS011;6471;50.932;6.934;2023-07-31T11:55:11;1.20;;;1.10;;
12812;SDS011;6471;50.932;6.934;2023-07-31T11:57:38;1.43;;;1.10;;
12812;SDS011;6471;50.932;6.934;2023-07-31T12:00:06;1.07;;;0.97;;
12812;SDS011;6471;50.932;6.934;2023-07-31T12:02:33;1.43;;;1.03;;
12812;SDS011;6471;50.932;6.934;2023-07-31T12:04:59;1.03;;;0.90;;
12812;SDS011;6471;50.932;6.934;2023-07-31T12:07:26;1.10;;;1.00;;
12812;SDS011;6471;50.932;6.934;2023-07-31T12:09:53;1.30;;;1.10;;
12812;SDS011;6471;50.932;6.934;2023-07-31T12:12:20;1.10;;;1.00;;
12812;SDS011;6471;50.932;6.934;2023-07-31T12:14:47;1.27;;;1.00;;
12812;SDS011;6471;50.932;6.934;2023-07-31T12:17:13;1.20;;;1.10;;
12812;SDS011;6471;50.932;6.934;2023-07-31T12:19:40;1.03;;;0.93;;
12812;SDS011;6471;50.932;6.934;2023-07-31T12:22:16;1.50;;;1.30;;
12812;SDS011;6471;50.932;6.934;2023-07-31T12:24:42;1.20;;;1.10;;
12812;SDS011;6471;50.932;6.934;2023-07-31T12:27:12;1.30;;;1.10;;
12812;SDS011;6471;50.932;6.934;2023-07-31T12:29:38;2.00;;;1.00;;
12812;SDS011;6471;50.932;6.934;2023-07-31T12:32:18;1.10;;;1.00;;
12812;SDS011;6471;50.932;6.934;2023-07-31T12:34:44;1.37;;;1.27;;
12812;SDS011;6471;50.932;6.934;2023-07-31T12:37:10;1.90;;;0.97;;
12812;SDS011;6471;50.932;6.934;2023-07-31T12:39:37;2.00;;;1.40;;
12812;SDS011;6471;50.932;6.934;2023-07-31T12:42:03;1.67;;;1.50;;
12812;SDS011;6471;50.932;6.934;2023-07-31T12:44:32;1.93;;;1.50;;
12812;SDS011;6471;50.932;6.934;2023-07-31T12:47:01;1.87;;;1.60;;
12812;SDS011;6471;50.932;6.934;2023-07-31T12:49:27;1.30;;;1.20;;
12812;SDS011;6471;50.932;6.934;2023-07-31T12:51:53;1.40;;;1.20;;
12812;SDS011;6471;50.932;6.934;2023-07-31T12:54:19;1.60;;;1.40;;
12812;SDS011;6471;50.932;6.934;2023-07-31T12:56:45;4.03;;;1.73;;
12812;SDS011;6471;50.932;6.934;2023-07-31T12:59:11;1.60;;;1.50;;
12812;SDS011;6471;50.932;6.934;2023-07-31T13:01:37;1.70;;;1.23;;
12812;SDS011;6471;50.932;6.934;2023-07-31T13:04:03;2.03;;;1.50;;
12812;SDS011;6471;50.932;6.934;2023-07-31T13:06:30;2.17;;;1.37;;
12812;SDS011;6471;50.932;6.934;2023-07-31T13:08:56;1.63;;;1.33;;
12812;SDS011;6471;50.932;6.934;2023-07-31T13:11:22;1.73;;;1.43;;
12812;SDS011;6471;50.932;6.934;2023-07-31T13:13:48;2.10;;;1.70;;
12812;SDS011;6471;50.932;6.934;2023-07-31T13:16:14;1.93;;;1.40;;
12812;SDS011;6471;50.932;6.934;2023-07-31T13:18:40;1.60;;;1.47;;
12812;SDS011;6471;50.932;6.934;2023-07-31T13:21:06;1.70;;;1.60;;
12812;SDS011;6471;50.932;6.934;2023-07-31T13:23:32;2.77;;;2.10;;
12812;SDS011;6471;50.932;6.934;2023-07-31T13:25:58;2.93;;;2.20;;
12812;SDS011;6471;50.932;6.934;2023-07-31T13:28:24;2.93;;;2.27;;
12812;SDS011;6471;50.932;6.934;2023-07-31T13:30:50;2.03;;;1.80;;
12812;SDS011;6471;50.932;6.934;2023-07-31T13:33:16;3.53;;;1.83;;
12812;SDS011;6471;50.932;6.934;2023-07-31T13:35:42;2.00;;;1.67;;
12812;SDS011;6471;50.932;6.934;2023-07-31T13:38:08;2.23;;;1.73;;
12812;SDS011;6471;50.932;6.934;2023-07-31T13:40:34;3.03;;;1.87;;
12812;SDS011;6471;50.932;6.934;2023-07-31T13:43:01;2.40;;;1.90;;
12812;SDS011;6471;50.932;6.934;2023-07-31T13:45:27;2.00;;;1.80;;
12812;SDS011;6471;50.932;6.934;2023-07-31T13:47:53;1.80;;;1.60;;
12812;SDS011;6471;50.932;6.934;2023-07-31T13:50:19;2.60;;;1.90;;
12812;SDS011;6471;50.932;6.934;2023-07-31T13:52:46;3.00;;;2.27;;
12812;SDS011;6471;50.932;6.934;2023-07-31T13:55:12;2.13;;;1.83;;
12812;SDS011;6471;50.932;6.934;2023-07-31T13:57:38;2.30;;;2.07;;
12812;SDS011;6471;50.932;6.934;2023-07-31T14:00:04;2.30;;;2.10;;
12812;SDS011;6471;50.932;6.934;2023-07-31T14:02:31;2.60;;;2.23;;
12812;SDS011;6471;50.932;6.934;2023-07-31T14:04:57;2.10;;;1.90;;
12812;SDS011;6471;50.932;6.934;2023-07-31T14:07:23;2.40;;;1.93;;
12812;SDS011;6471;50.932;6.934;2023-07-31T14:09:49;3.33;;;2.10;;
12812;SDS011;6471;50.932;6.934;2023-07-31T14:12:15;3.17;;;2.00;;
12812;SDS011;6471;50.932;6.934;2023-07-31T14:14:41;2.00;;;1.80;;
12812;SDS011;6471;50.932;6.934;2023-07-31T14:17:07;3.73;;;1.90;;
12812;SDS011;6471;50.932;6.934;2023-07-31T14:19:33;2.27;;;1.80;;
12812;SDS011;6471;50.932;6.934;2023-07-31T14:21:59;2.73;;;1.90;;
12812;SDS011;6471;50.932;6.934;2023-07-31T14:24:25;2.20;;;1.87;;
12812;SDS011;6471;50.932;6.934;2023-07-31T14:26:51;2.17;;;1.77;;
12812;SDS011;6471;50.932;6.934;2023-07-31T14:29:17;2.47;;;1.90;;
12812;SDS011;6471;50.932;6.934;2023-07-31T14:31:44;2.57;;;1.80;;
12812;SDS011;6471;50.932;6.934;2023-07-31T14:34:10;2.23;;;2.03;;
12812;SDS011;6471;50.932;6.934;2023-07-31T14:36:36;2.33;;;1.90;;
12812;SDS011;6471;50.932;6.934;2023-07-31T14:39:03;3.00;;;2.07;;
12812;SDS011;6471;50.932;6.934;2023-07-31T14:41:29;2.83;;;2.20;;
12812;SDS011;6471;50.932;6.934;2023-07-31T14:43:55;3.10;;;2.60;;
12812;SDS011;6471;50.932;6.934;2023-07-31T14:46:21;12.10;;;8.70;;
12812;SDS011;6471;50.932;6.934;2023-07-31T14:48:47;6.90;;;5.70;;
12812;SDS011;6471;50.932;6.934;2023-07-31T14:51:14;5.30;;;4.40;;
12812;SDS011;6471;50.932;6.934;2023-07-31T14:53:41;4.43;;;3.57;;
12812;SDS011;6471;50.932;6.934;2023-07-31T14:56:10;3.43;;;2.90;;
12812;SDS011;6471;50.932;6.934;2023-07-31T14:58:36;4.30;;;3.20;;
12812;SDS011;6471;50.932;6.934;2023-07-31T15:01:02;3.57;;;2.63;;
12812;SDS011;6471;50.932;6.934;2023-07-31T15:03:28;4.70;;;2.67;;
12812;SDS011;6471;50.932;6.934;2023-07-31T15:05:55;4.20;;;3.00;;
12812;SDS011;6471;50.932;6.934;2023-07-31T15:08:21;2.90;;;2.40;;
12812;SDS011;6471;50.932;6.934;2023-07-31T15:10:47;3.60;;;3.00;;
12812;SDS011;6471;50.932;6.934;2023-07-31T15:13:13;3.93;;;2.93;;
12812;SDS011;6471;50.932;6.934;2023-07-31T15:15:39;3.30;;;2.83;;